createdAt,value
2022-10-13T00:00:56.825Z,13.60
2022-10-13T00:03:23.716Z,12.25
2022-10-13T00:05:51.552Z,13.30
2022-10-13T00:08:21.356Z,12.25
2022-10-13T00:10:51.056Z,12.90
2022-10-13T00:13:19.427Z,15.32
2022-10-13T00:15:47.382Z,12.18
2022-10-13T00:18:15.717Z,16.00
2022-10-13T00:20:45.604Z,12.45
2022-10-13T00:23:14.033Z,12.80
2022-10-13T00:25:46.242Z,11.90
2022-10-13T00:28:14.709Z,11.68
2022-10-13T00:30:42.235Z,12.52
2022-10-13T00:33:10.426Z,13.98
2022-10-13T00:35:42.762Z,12.93
2022-10-13T00:38:09.934Z,11.82
2022-10-13T00:40:48.279Z,14.52
2022-10-13T00:43:49.203Z,12.77
2022-10-13T00:46:16.175Z,12.90
2022-10-13T00:48:44.707Z,14.53
2022-10-13T00:51:15.464Z,15.02
2022-10-13T00:53:43.011Z,13.02
2022-10-13T00:56:12.773Z,12.52
2022-10-13T00:58:40.481Z,12.77
2022-10-13T01:01:08.343Z,16.93
2022-10-13T01:03:36.378Z,10.73
2022-10-13T01:06:05.554Z,14.60
2022-10-13T01:08:33.497Z,16.45
2022-10-13T01:11:24.429Z,12.85
2022-10-13T01:14:00.053Z,13.70
2022-10-13T01:16:45.541Z,14.38
2022-10-13T01:19:51.178Z,15.48
2022-10-13T01:22:45.935Z,12.27
2022-10-13T01:25:45.328Z,15.10
2022-10-13T01:28:41.427Z,14.67
2022-10-13T01:31:17.212Z,12.13
2022-10-13T01:33:52.983Z,13.02
2022-10-13T01:36:33.283Z,13.88
2022-10-13T01:39:08.024Z,12.95
2022-10-13T01:41:40.953Z,12.03
2022-10-13T01:44:18.013Z,11.77
2022-10-13T01:46:47.179Z,11.65
2022-10-13T01:49:18.889Z,10.27
2022-10-13T01:51:47.584Z,15.38
2022-10-13T01:54:14.761Z,15.03
2022-10-13T01:56:41.661Z,14.25
2022-10-13T01:59:14.737Z,12.02
2022-10-13T02:02:17.406Z,17.55
2022-10-13T02:04:59.274Z,13.57
2022-10-13T02:07:38.025Z,12.47
2022-10-13T02:10:14.892Z,14.13
2022-10-13T02:12:59.691Z,11.93
2022-10-13T02:15:33.193Z,11.95
2022-10-13T02:18:02.158Z,14.73
2022-10-13T02:20:30.590Z,14.63
2022-10-13T02:23:02.815Z,13.25
2022-10-13T02:25:31.049Z,11.65
2022-10-13T02:28:00.538Z,14.10
2022-10-13T02:30:31.244Z,14.65
2022-10-13T02:32:58.185Z,12.17
2022-10-13T02:35:25.245Z,13.50
2022-10-13T02:37:52.228Z,11.57
2022-10-13T02:40:19.053Z,16.85
2022-10-13T02:42:45.907Z,15.30
2022-10-13T02:45:13.007Z,12.53
2022-10-13T02:47:39.871Z,12.98
2022-10-13T02:50:07.601Z,11.02
2022-10-13T02:52:34.472Z,17.17
2022-10-13T02:55:01.379Z,13.05
2022-10-13T02:57:28.302Z,12.37
2022-10-13T02:59:55.175Z,12.25
2022-10-13T03:02:22.289Z,13.20
2022-10-13T03:04:49.859Z,13.57
2022-10-13T03:07:16.689Z,11.48
2022-10-13T03:09:43.595Z,11.60
2022-10-13T03:12:10.559Z,15.30
2022-10-13T03:14:37.598Z,16.52
2022-10-13T03:17:04.478Z,14.55
2022-10-13T03:19:32.188Z,16.45
2022-10-13T03:21:59.023Z,14.97
2022-10-13T03:24:25.974Z,16.35
2022-10-13T03:26:52.832Z,14.73
2022-10-13T03:29:20.040Z,13.18
2022-10-13T03:31:46.978Z,12.55
2022-10-13T03:34:16.726Z,12.23
2022-10-13T03:36:43.694Z,17.88
2022-10-13T03:39:10.570Z,15.70
2022-10-13T03:41:37.545Z,15.32
2022-10-13T03:44:04.640Z,14.88
2022-10-13T03:46:31.920Z,14.23
2022-10-13T03:48:58.816Z,12.60
2022-10-13T03:51:25.984Z,12.57
2022-10-13T03:53:53.992Z,10.48
2022-10-13T03:56:24.141Z,15.57
2022-10-13T03:59:01.275Z,9.97
2022-10-13T04:01:30.402Z,12.18
2022-10-13T04:03:58.807Z,16.20
2022-10-13T04:06:26.634Z,12.27
2022-10-13T04:08:54.110Z,16.15
2022-10-13T04:11:21.846Z,12.60
2022-10-13T04:13:48.703Z,12.75
2022-10-13T04:16:18.737Z,14.38
2022-10-13T04:18:50.181Z,12.13
2022-10-13T04:21:17.050Z,13.15
2022-10-13T04:23:43.910Z,12.60
2022-10-13T04:26:22.488Z,16.27
2022-10-13T04:28:50.748Z,11.20
2022-10-13T04:31:18.148Z,14.80
2022-10-13T04:33:45.995Z,16.17
2022-10-13T04:36:14.308Z,14.67
2022-10-13T04:38:42.793Z,13.45
2022-10-13T04:41:10.544Z,14.02
2022-10-13T04:43:37.484Z,11.73
2022-10-13T04:46:10.691Z,14.88
2022-10-13T04:48:37.757Z,14.73
2022-10-13T04:51:08.023Z,10.25
2022-10-13T04:53:34.986Z,14.55
2022-10-13T04:56:03.958Z,11.75
2022-10-13T04:58:31.313Z,12.13
2022-10-13T05:00:58.589Z,16.30
2022-10-13T05:03:26.165Z,16.75
2022-10-13T05:05:53.626Z,15.15
2022-10-13T05:08:21.398Z,13.90
2022-10-13T05:10:59.174Z,12.95
2022-10-13T05:13:27.288Z,13.73
2022-10-13T05:15:54.175Z,15.50
2022-10-13T05:18:21.184Z,13.50
2022-10-13T05:20:48.072Z,13.10
2022-10-13T05:23:15.822Z,12.25
2022-10-13T05:25:43.150Z,16.03
2022-10-13T05:28:10.144Z,14.05
2022-10-13T05:30:37.007Z,12.70
2022-10-13T05:33:03.947Z,16.40
2022-10-13T05:35:31.141Z,12.80
2022-10-13T05:37:58.003Z,14.40
2022-10-13T05:40:25.031Z,14.25
2022-10-13T05:42:52.847Z,15.40
2022-10-13T05:45:21.811Z,15.75
2022-10-13T05:47:48.660Z,18.40
2022-10-13T05:50:15.672Z,16.67
2022-10-13T05:52:43.376Z,14.43
2022-10-13T05:55:13.693Z,16.33
2022-10-13T05:57:44.319Z,13.95
2022-10-13T06:00:17.225Z,15.77
2022-10-13T06:02:53.685Z,16.07
2022-10-13T06:05:24.107Z,16.02
2022-10-13T06:07:51.266Z,18.65
2022-10-13T06:10:18.908Z,16.30
2022-10-13T06:12:45.950Z,13.93
2022-10-13T06:15:12.976Z,15.77
2022-10-13T06:17:40.200Z,14.70
2022-10-13T06:20:08.883Z,14.15
2022-10-13T06:22:37.088Z,17.05
2022-10-13T06:25:06.023Z,14.60
2022-10-13T06:27:33.446Z,15.20
2022-10-13T06:30:00.465Z,15.27
2022-10-13T06:32:27.573Z,20.27
2022-10-13T06:34:55.117Z,13.95
2022-10-13T06:37:26.934Z,15.48
2022-10-13T06:39:54.643Z,14.03
2022-10-13T06:42:22.076Z,16.38
2022-10-13T06:44:49.563Z,13.55
2022-10-13T06:47:16.518Z,15.10
2022-10-13T06:49:43.521Z,17.08
2022-10-13T06:52:10.565Z,15.97
2022-10-13T06:54:37.553Z,15.73
2022-10-13T06:57:06.591Z,15.23
2022-10-13T06:59:33.758Z,14.75
2022-10-13T07:02:00.692Z,12.13
2022-10-13T07:04:28.516Z,18.03
2022-10-13T07:06:55.676Z,12.65
2022-10-13T07:09:22.885Z,15.00
2022-10-13T07:11:50.535Z,15.75
2022-10-13T07:14:17.543Z,18.23
2022-10-13T07:16:44.640Z,17.70
2022-10-13T07:19:11.586Z,18.65
2022-10-13T07:21:38.689Z,14.27
2022-10-13T07:24:06.126Z,18.17
2022-10-13T07:26:34.204Z,16.63
2022-10-13T07:29:02.258Z,14.93
2022-10-13T07:31:29.625Z,16.83
2022-10-13T07:33:59.825Z,15.40
2022-10-13T07:36:27.781Z,18.17
2022-10-13T07:38:54.877Z,18.23
2022-10-13T07:41:21.906Z,15.13
2022-10-13T07:43:48.903Z,23.45
2022-10-13T07:46:16.001Z,16.33
2022-10-13T07:48:43.153Z,20.52
2022-10-13T07:51:12.190Z,15.88
2022-10-13T07:53:40.365Z,22.70
2022-10-13T07:56:10.766Z,19.63
2022-10-13T07:58:39.123Z,20.95
2022-10-13T08:01:07.078Z,16.67
2022-10-13T08:03:34.267Z,18.45
2022-10-13T08:06:02.937Z,15.47
2022-10-13T08:08:30.576Z,18.23
2022-10-13T08:11:10.671Z,18.90
2022-10-13T08:13:39.131Z,18.35
2022-10-13T08:16:06.295Z,20.70
2022-10-13T08:18:33.480Z,17.93
2022-10-13T08:23:50.581Z,20.45
2022-10-13T08:26:23.631Z,22.23
2022-10-13T08:29:09.594Z,17.38
2022-10-13T08:31:38.630Z,20.63
2022-10-13T08:34:05.791Z,19.67
2022-10-13T08:36:32.836Z,17.35
2022-10-13T08:38:59.897Z,20.67
2022-10-13T08:41:28.623Z,16.73
2022-10-13T08:47:32.995Z,18.35
2022-10-13T08:50:04.071Z,17.42
2022-10-13T08:52:48.681Z,20.05
2022-10-13T08:55:33.606Z,18.27
2022-10-13T08:58:02.695Z,17.73
2022-10-13T09:00:30.875Z,17.35
2022-10-13T09:03:30.582Z,18.20
2022-10-13T09:06:11.761Z,16.25
2022-10-13T09:08:44.355Z,18.48
2022-10-13T09:11:13.084Z,15.47
2022-10-13T09:13:40.766Z,18.88
2022-10-13T09:16:08.169Z,17.15
2022-10-13T09:18:35.837Z,17.40
2022-10-13T09:21:25.510Z,18.50
2022-10-13T09:23:54.317Z,15.80
2022-10-13T09:26:25.528Z,18.23
2022-10-13T09:28:53.073Z,15.88
2022-10-13T09:31:30.502Z,14.65
2022-10-13T09:34:15.764Z,12.98
2022-10-13T09:37:01.909Z,15.73
2022-10-13T09:39:30.107Z,12.65
2022-10-13T09:42:20.029Z,14.18
2022-10-13T09:44:48.960Z,15.38
2022-10-13T09:47:25.563Z,16.50
2022-10-13T09:50:18.845Z,13.30
2022-10-13T09:52:47.936Z,14.75
2022-10-13T09:55:32.864Z,14.23
2022-10-13T09:58:14.865Z,13.57
2022-10-13T10:00:42.270Z,12.35
2022-10-13T10:03:26.313Z,13.77
2022-10-13T10:05:59.894Z,14.85
2022-10-13T10:08:58.103Z,13.88
2022-10-13T10:11:45.655Z,12.10
2022-10-13T10:14:18.678Z,11.38
2022-10-13T10:16:54.257Z,11.20
2022-10-13T10:19:49.694Z,16.77
2022-10-13T10:22:34.847Z,15.13
2022-10-13T10:25:10.863Z,13.43
2022-10-13T10:27:44.106Z,10.38
2022-10-13T10:30:19.692Z,14.60
2022-10-13T10:33:13.647Z,12.68
2022-10-13T10:35:52.611Z,13.85
2022-10-13T10:38:53.337Z,11.73
2022-10-13T10:41:46.723Z,11.80
2022-10-13T10:44:48.260Z,12.27
2022-10-13T10:47:30.600Z,15.32
2022-10-13T10:50:03.810Z,17.30
2022-10-13T10:52:53.734Z,12.73
2022-10-13T10:55:33.264Z,15.13
2022-10-13T10:58:22.618Z,12.27
2022-10-13T11:01:16.857Z,14.68
2022-10-13T11:03:55.355Z,15.55
2022-10-13T11:06:24.639Z,14.98
2022-10-13T11:08:51.594Z,15.23
2022-10-13T11:11:29.412Z,10.20
2022-10-13T11:14:01.929Z,16.83
2022-10-13T11:16:59.897Z,12.63
2022-10-13T11:19:33.634Z,14.45
2022-10-13T11:22:00.297Z,12.95
2022-10-13T11:24:42.351Z,13.97
2022-10-13T11:27:11.935Z,14.40
2022-10-13T11:30:00.064Z,19.73
2022-10-13T11:32:27.345Z,15.07
2022-10-13T11:35:21.693Z,14.05
2022-10-13T11:38:06.881Z,14.37
2022-10-13T11:41:03.203Z,18.55
2022-10-13T11:43:53.745Z,16.77
2022-10-13T11:46:20.971Z,16.98
2022-10-13T11:49:08.974Z,15.98
2022-10-13T11:52:12.580Z,16.80
2022-10-13T11:54:54.542Z,20.35
2022-10-13T11:57:24.549Z,14.65
2022-10-13T11:59:55.920Z,15.77
2022-10-13T12:02:26.098Z,16.95
2022-10-13T12:05:07.737Z,17.47
2022-10-13T12:07:39.693Z,15.85
2022-10-13T12:10:15.278Z,15.48
2022-10-13T12:12:50.027Z,17.40
2022-10-13T12:15:35.493Z,13.20
2022-10-13T12:18:19.759Z,14.70
2022-10-13T12:20:56.418Z,14.25
2022-10-13T12:23:24.183Z,16.52
2022-10-13T12:25:57.758Z,16.25
2022-10-13T12:28:31.121Z,15.00
2022-10-13T12:31:00.087Z,17.03
2022-10-13T12:33:38.041Z,15.75
2022-10-13T12:36:17.853Z,14.27
2022-10-13T12:38:50.766Z,15.07
2022-10-13T12:41:36.448Z,13.23
2022-10-13T12:44:06.733Z,15.40
2022-10-13T12:46:49.481Z,15.98
2022-10-13T12:49:16.381Z,14.48
2022-10-13T12:51:46.851Z,14.18
2022-10-13T12:54:18.609Z,12.77
2022-10-13T12:56:45.933Z,13.57
2022-10-13T12:59:18.366Z,13.07
2022-10-13T13:01:46.450Z,13.85
2022-10-13T13:04:18.150Z,13.88
2022-10-13T13:07:03.065Z,13.50
2022-10-13T13:09:41.364Z,13.47
2022-10-13T13:12:11.079Z,12.07
2022-10-13T13:14:39.287Z,14.00
2022-10-13T13:17:17.518Z,14.38
2022-10-13T13:19:55.889Z,13.25
2022-10-13T13:22:23.014Z,11.50
2022-10-13T13:24:51.880Z,14.77
2022-10-13T13:27:32.369Z,15.43
2022-10-13T13:29:59.346Z,13.50
2022-10-13T13:32:27.989Z,14.18
2022-10-13T13:34:55.458Z,14.00
2022-10-13T13:37:35.698Z,14.43
2022-10-13T13:40:02.872Z,16.27
2022-10-13T13:42:30.420Z,19.25
2022-10-13T13:44:57.564Z,17.63
2022-10-13T13:47:27.002Z,16.23
2022-10-13T13:49:57.745Z,14.73
2022-10-13T13:52:25.791Z,16.55
2022-10-13T13:54:53.445Z,16.02
2022-10-13T13:57:20.962Z,16.25
2022-10-13T13:59:48.114Z,18.07
2022-10-13T14:02:18.523Z,15.57
2022-10-13T14:04:46.577Z,17.95
2022-10-13T14:07:14.114Z,15.90
2022-10-13T14:09:41.779Z,17.77
2022-10-13T14:12:09.191Z,16.37
2022-10-13T14:14:36.124Z,19.00
2022-10-13T14:17:05.137Z,15.43
2022-10-13T14:19:32.936Z,13.70
2022-10-13T14:22:04.729Z,13.40
2022-10-13T14:24:34.473Z,16.90
2022-10-13T14:27:01.340Z,15.55
2022-10-13T14:29:28.379Z,13.32
2022-10-13T14:31:55.391Z,16.67
2022-10-13T14:34:22.479Z,16.30
2022-10-13T14:36:49.512Z,17.47
2022-10-13T14:39:16.453Z,13.52
2022-10-13T14:41:43.601Z,16.17
2022-10-13T14:44:12.712Z,15.18
2022-10-13T14:46:40.662Z,14.00
2022-10-13T14:49:07.657Z,20.27
2022-10-13T14:51:34.632Z,19.33
2022-10-13T14:54:02.907Z,16.42
2022-10-13T14:56:30.978Z,15.02
2022-10-13T14:58:59.633Z,13.48
2022-10-13T15:01:26.909Z,14.50
2022-10-13T15:03:54.133Z,14.02
2022-10-13T15:06:24.593Z,18.33
2022-10-13T15:08:52.063Z,16.65
2022-10-13T15:11:21.597Z,16.48
2022-10-13T15:13:48.657Z,18.40
2022-10-13T15:16:24.284Z,14.98
2022-10-13T15:18:51.307Z,14.45
2022-10-13T15:21:18.993Z,12.77
2022-10-13T15:23:46.463Z,12.65
2022-10-13T15:26:15.943Z,15.70
2022-10-13T15:28:46.095Z,13.95
2022-10-13T15:31:13.406Z,19.30
2022-10-13T15:33:46.592Z,17.65
2022-10-13T15:36:14.210Z,13.85
2022-10-13T15:38:41.180Z,14.10
2022-10-13T15:41:08.584Z,15.50
2022-10-13T15:43:35.728Z,14.23
2022-10-13T15:46:05.634Z,16.73
2022-10-13T15:48:33.614Z,13.30
2022-10-13T15:51:01.169Z,15.07
2022-10-13T15:53:30.211Z,14.50
2022-10-13T15:55:57.105Z,13.70
2022-10-13T15:58:23.990Z,14.77
2022-10-13T16:00:50.937Z,18.48
2022-10-13T16:03:18.767Z,14.40
2022-10-13T16:05:46.815Z,16.42
2022-10-13T16:08:14.857Z,15.52
2022-10-13T16:10:43.218Z,13.18
2022-10-13T16:13:14.002Z,14.70
2022-10-13T16:15:41.877Z,17.17
2022-10-13T16:18:08.807Z,16.77
2022-10-13T16:20:38.038Z,14.90
2022-10-13T16:23:05.601Z,13.48
2022-10-13T16:25:32.508Z,15.27
2022-10-13T16:28:00.998Z,13.43
2022-10-13T16:30:30.590Z,15.68
2022-10-13T16:32:58.233Z,14.73
2022-10-13T16:35:27.054Z,15.73
2022-10-13T16:37:53.909Z,18.55
2022-10-13T16:40:20.807Z,15.00
2022-10-13T16:42:48.280Z,16.95
2022-10-13T16:45:15.552Z,16.25
2022-10-13T16:47:42.645Z,15.23
2022-10-13T16:50:10.200Z,18.40
2022-10-13T16:52:37.940Z,11.90
2022-10-13T16:55:06.359Z,14.07
2022-10-13T16:57:33.423Z,15.70
2022-10-13T17:00:00.368Z,15.85
2022-10-13T17:02:27.208Z,16.58
2022-10-13T17:04:54.397Z,17.47
2022-10-13T17:07:21.549Z,14.93
2022-10-13T17:09:48.568Z,16.63
2022-10-13T17:12:15.519Z,16.42
2022-10-13T17:14:42.381Z,15.07
2022-10-13T17:17:09.346Z,18.37
2022-10-13T17:19:36.267Z,17.70
2022-10-13T17:22:03.102Z,20.25
2022-10-13T17:24:30.291Z,16.67
2022-10-13T17:26:57.347Z,18.33
2022-10-13T17:29:24.427Z,17.47
2022-10-13T17:31:51.350Z,18.73
2022-10-13T17:34:18.307Z,24.38
2022-10-13T17:36:45.342Z,21.27
2022-10-13T17:39:12.236Z,17.92
2022-10-13T17:41:39.517Z,19.10
2022-10-13T17:44:06.592Z,18.23
2022-10-13T17:46:38.480Z,20.95
2022-10-13T17:49:08.179Z,22.15
2022-10-13T17:51:35.459Z,17.33
2022-10-13T17:54:02.208Z,18.67
2022-10-13T17:56:29.324Z,19.70
2022-10-13T17:58:57.030Z,17.30
2022-10-13T18:01:30.069Z,19.55
2022-10-13T18:03:59.766Z,17.95
2022-10-13T18:06:37.995Z,18.97
2022-10-13T18:09:11.215Z,16.63
2022-10-13T18:11:39.490Z,18.33
2022-10-13T18:14:07.153Z,18.38
2022-10-13T18:16:35.233Z,16.08
2022-10-13T18:19:02.926Z,17.80
2022-10-13T18:21:29.871Z,14.25
2022-10-13T18:23:59.455Z,15.38
2022-10-13T18:26:29.126Z,14.45
2022-10-13T18:28:57.374Z,15.02
2022-10-13T18:31:27.801Z,13.23
2022-10-13T18:33:56.354Z,14.70
2022-10-13T18:36:26.231Z,14.88
2022-10-13T18:38:55.308Z,14.32
2022-10-13T18:41:24.656Z,15.45
2022-10-13T18:43:51.978Z,14.77
2022-10-13T18:46:19.432Z,15.55
2022-10-13T18:48:46.552Z,15.15
2022-10-13T18:51:15.617Z,15.73
2022-10-13T18:53:47.119Z,16.42
2022-10-13T18:56:26.392Z,13.17
2022-10-13T18:58:59.334Z,14.88
2022-10-13T19:01:29.131Z,12.73
2022-10-13T19:03:56.714Z,11.10
2022-10-13T19:06:27.221Z,12.98
2022-10-13T19:09:00.872Z,11.53
2022-10-13T19:11:29.412Z,9.00
2022-10-13T19:13:57.629Z,12.05
2022-10-13T19:16:26.496Z,9.77
2022-10-13T19:18:53.548Z,13.40
2022-10-13T19:21:21.423Z,9.43
2022-10-13T19:23:49.216Z,11.57
2022-10-13T19:26:19.852Z,10.52
2022-10-13T19:28:47.577Z,8.65
2022-10-13T19:31:17.588Z,9.85
2022-10-13T19:33:47.310Z,11.43
2022-10-13T19:36:32.693Z,8.73
2022-10-13T19:39:00.265Z,10.30
2022-10-13T19:41:29.626Z,10.30
2022-10-13T19:43:56.594Z,10.50
2022-10-13T19:46:23.677Z,10.57
2022-10-13T19:48:50.803Z,12.30
2022-10-13T19:51:18.608Z,10.60
2022-10-13T19:53:45.643Z,10.48
2022-10-13T19:56:31.749Z,10.80
2022-10-13T19:58:59.158Z,13.43
2022-10-13T20:01:26.445Z,13.02
2022-10-13T20:03:53.535Z,10.55
2022-10-13T20:06:21.200Z,11.63
2022-10-13T20:08:48.873Z,12.18
2022-10-13T20:11:23.328Z,11.70
2022-10-13T20:13:51.057Z,11.85
2022-10-13T20:16:20.578Z,12.35
2022-10-13T20:18:52.675Z,12.57
2022-10-13T20:21:19.607Z,11.38
2022-10-13T20:23:46.856Z,13.50
2022-10-13T20:26:14.373Z,12.80
2022-10-13T20:28:43.727Z,13.52
2022-10-13T20:31:12.990Z,11.02
2022-10-13T20:33:40.602Z,12.38
2022-10-13T20:36:11.957Z,11.17
2022-10-13T20:38:39.058Z,10.45
2022-10-13T20:41:06.465Z,10.05
2022-10-13T20:43:34.531Z,10.18
2022-10-13T20:46:07.353Z,11.65
2022-10-13T20:49:05.276Z,10.17
2022-10-13T20:51:23.943Z,10.85
2022-10-13T20:53:50.903Z,8.75
2022-10-13T20:56:21.396Z,10.13
2022-10-13T20:58:48.412Z,8.18
2022-10-13T21:01:16.845Z,12.93
2022-10-13T21:03:43.812Z,12.38
2022-10-13T21:06:13.440Z,11.55
2022-10-13T21:08:40.724Z,13.32
2022-10-13T21:11:11.127Z,17.95
2022-10-13T21:13:39.718Z,20.23
2022-10-13T21:16:12.894Z,18.42
2022-10-13T21:18:40.164Z,21.58
2022-10-13T21:21:10.070Z,19.83
2022-10-13T21:23:37.722Z,20.95
2022-10-13T21:26:06.477Z,24.80
2022-10-13T21:28:36.540Z,22.27
2022-10-13T21:31:08.856Z,22.20
2022-10-13T21:33:37.984Z,25.80
2022-10-13T21:36:14.633Z,24.65
2022-10-13T21:38:42.722Z,25.60
2022-10-13T21:41:11.652Z,26.00
2022-10-13T21:43:38.879Z,27.27
2022-10-13T21:46:17.423Z,34.05
2022-10-13T21:48:46.013Z,30.08
2022-10-13T21:51:20.498Z,23.60
2022-10-13T21:53:55.186Z,34.35
2022-10-13T21:56:22.738Z,34.75
2022-10-13T21:58:49.844Z,30.92
2022-10-13T22:01:17.851Z,38.45
2022-10-13T22:03:47.248Z,24.37
2022-10-13T22:06:19.171Z,46.83
2022-10-13T22:08:48.912Z,36.45
2022-10-13T22:11:17.246Z,32.35
2022-10-13T22:13:44.492Z,31.60
2022-10-13T22:16:17.147Z,43.90
2022-10-13T22:18:44.173Z,48.05
2022-10-13T22:21:16.101Z,34.00
2022-10-13T22:23:43.810Z,38.60
2022-10-13T22:26:11.057Z,23.77
2022-10-13T22:28:39.081Z,34.77
2022-10-13T22:31:07.897Z,33.67
2022-10-13T22:33:36.382Z,39.45
2022-10-13T22:36:11.540Z,43.50
2022-10-13T22:38:38.549Z,47.25
2022-10-13T22:41:07.007Z,30.17
2022-10-13T22:43:34.849Z,40.58
2022-10-13T22:46:04.571Z,40.08
2022-10-13T22:48:36.940Z,24.00
2022-10-13T22:51:07.413Z,26.48
2022-10-13T22:53:34.613Z,24.60
2022-10-13T22:56:06.016Z,40.15
2022-10-13T22:58:33.193Z,19.63
2022-10-13T23:01:14.731Z,50.58
2022-10-13T23:03:41.856Z,41.55
2022-10-13T23:06:14.127Z,62.83
2022-10-13T23:08:41.773Z,47.72
2022-10-13T23:11:09.243Z,49.70
2022-10-13T23:13:36.715Z,56.00
2022-10-13T23:16:25.550Z,34.13
2022-10-13T23:18:52.737Z,29.47
2022-10-13T23:21:22.119Z,22.95
2022-10-13T23:23:54.990Z,86.65
2022-10-13T23:26:21.928Z,34.40
2022-10-13T23:28:48.796Z,55.65
2022-10-13T23:31:17.709Z,34.07
2022-10-13T23:33:45.379Z,51.95
2022-10-13T23:36:24.328Z,27.05
2022-10-13T23:38:56.341Z,23.38
2022-10-13T23:41:23.622Z,27.65
2022-10-13T23:43:50.687Z,26.10
2022-10-13T23:46:17.610Z,23.98
2022-10-13T23:48:44.697Z,28.55
2022-10-13T23:51:14.778Z,41.08
2022-10-13T23:53:42.379Z,39.95
2022-10-13T23:56:11.125Z,51.97
2022-10-13T23:58:40.159Z,31.63
